sensor_id;sensor_type;location;lat;lon;timestamp;pressure;altitude;pressure_sealevel;temperature;humidity
19761;BME280;10039;42.632;23.408;2023-02-20T00:02:25;95291.53;;;11.08;56.21
19761;BME280;10039;42.632;23.408;2023-02-20T00:04:50;95276.47;;;10.94;56.27
19761;BME280;10039;42.632;23.408;2023-02-20T00:07:16;95291.59;;;11.04;56.53
19761;BME280;10039;42.632;23.408;2023-02-20T00:09:41;95288.56;;;11.02;57.06
19761;BME280;10039;42.632;23.408;2023-02-20T00:12:07;95300.78;;;11.00;57.33
19761;BME280;10039;42.632;23.408;2023-02-20T00:14:32;95285.25;;;10.95;57.31
19761;BME280;10039;42.632;23.408;2023-02-20T00:16:57;95286.34;;;10.97;57.76
19761;BME280;10039;42.632;23.408;2023-02-20T00:19:23;95288.72;;;10.92;57.93
19761;BME280;10039;42.632;23.408;2023-02-20T00:21:49;95303.34;;;10.84;57.74
19761;BME280;10039;42.632;23.408;2023-02-20T00:24:16;95290.34;;;10.86;57.88
19761;BME280;10039;42.632;23.408;2023-02-20T00:26:50;95294.81;;;10.92;57.99
19761;BME280;10039;42.632;23.408;2023-02-20T00:29:17;95306.75;;;10.84;58.01
19761;BME280;10039;42.632;23.408;2023-02-20T00:31:49;95310.19;;;10.85;57.90
19761;BME280;10039;42.632;23.408;2023-02-20T00:34:15;95317.41;;;10.88;58.44
19761;BME280;10039;42.632;23.408;2023-02-20T00:36:40;95315.19;;;10.83;58.76
19761;BME280;10039;42.632;23.408;2023-02-20T00:39:06;95298.06;;;10.80;58.89
19761;BME280;10039;42.632;23.408;2023-02-20T00:41:31;95299.44;;;10.88;58.44
19761;BME280;10039;42.632;23.408;2023-02-20T00:43:56;95288.78;;;10.88;58.36
19761;BME280;10039;42.632;23.408;2023-02-20T00:46:22;95264.78;;;10.62;59.07
19761;BME280;10039;42.632;23.408;2023-02-20T00:48:47;95251.09;;;10.56;58.89
19761;BME280;10039;42.632;23.408;2023-02-20T00:51:15;95275.66;;;10.74;59.21
19761;BME280;10039;42.632;23.408;2023-02-20T00:53:40;95289.81;;;10.68;59.63
19761;BME280;10039;42.632;23.408;2023-02-20T00:56:05;95286.13;;;10.62;59.43
19761;BME280;10039;42.632;23.408;2023-02-20T00:58:31;95286.00;;;10.69;59.11
19761;BME280;10039;42.632;23.408;2023-02-20T01:00:56;95284.91;;;10.66;59.34
19761;BME280;10039;42.632;23.408;2023-02-20T01:03:22;95291.00;;;10.67;59.59
19761;BME280;10039;42.632;23.408;2023-02-20T01:05:47;95291.81;;;10.64;59.88
19761;BME280;10039;42.632;23.408;2023-02-20T01:08:13;95294.84;;;10.66;59.06
19761;BME280;10039;42.632;23.408;2023-02-20T01:10:38;95304.44;;;10.60;59.46
19761;BME280;10039;42.632;23.408;2023-02-20T01:13:03;95322.78;;;10.58;59.97
19761;BME280;10039;42.632;23.408;2023-02-20T01:15:29;95329.72;;;10.52;60.35
19761;BME280;10039;42.632;23.408;2023-02-20T01:17:54;95336.25;;;10.47;60.50
19761;BME280;10039;42.632;23.408;2023-02-20T01:20:20;95339.63;;;10.51;60.69
19761;BME280;10039;42.632;23.408;2023-02-20T01:22:45;95345.34;;;10.50;60.10
19761;BME280;10039;42.632;23.408;2023-02-20T01:25:10;95311.09;;;10.15;60.71
19761;BME280;10039;42.632;23.408;2023-02-20T01:27:36;95349.63;;;10.44;60.85
19761;BME280;10039;42.632;23.408;2023-02-20T01:30:01;95354.16;;;10.47;60.32
19761;BME280;10039;42.632;23.408;2023-02-20T01:32:27;95358.00;;;10.46;60.48
19761;BME280;10039;42.632;23.408;2023-02-20T01:34:52;95361.22;;;10.30;60.88
19761;BME280;10039;42.632;23.408;2023-02-20T01:37:17;95344.38;;;10.37;60.91
19761;BME280;10039;42.632;23.408;2023-02-20T01:39:46;95346.59;;;10.42;60.69
19761;BME280;10039;42.632;23.408;2023-02-20T01:42:15;95342.78;;;10.43;60.88
19761;BME280;10039;42.632;23.408;2023-02-20T01:44:42;95350.78;;;10.43;60.89
19761;BME280;10039;42.632;23.408;2023-02-20T01:47:15;95349.63;;;10.44;61.31
19761;BME280;10039;42.632;23.408;2023-02-20T01:49:47;95353.13;;;10.37;61.41
19761;BME280;10039;42.632;23.408;2023-02-20T01:52:22;95355.41;;;10.39;61.22
19761;BME280;10039;42.632;23.408;2023-02-20T01:55:00;95369.19;;;10.34;61.77
19761;BME280;10039;42.632;23.408;2023-02-20T01:57:29;95360.47;;;10.30;62.07
19761;BME280;10039;42.632;23.408;2023-02-20T02:00:02;95357.47;;;10.24;62.40
19761;BME280;10039;42.632;23.408;2023-02-20T02:02:32;95368.69;;;10.12;63.34
19761;BME280;10039;42.632;23.408;2023-02-20T02:04:59;95358.44;;;10.07;63.20
19761;BME280;10039;42.632;23.408;2023-02-20T02:07:25;95370.19;;;10.13;63.24
19761;BME280;10039;42.632;23.408;2023-02-20T02:10:02;95386.56;;;10.12;63.39
19761;BME280;10039;42.632;23.408;2023-02-20T02:12:28;95372.88;;;10.10;62.96
19761;BME280;10039;42.632;23.408;2023-02-20T02:14:54;95374.75;;;10.13;63.24
19761;BME280;10039;42.632;23.408;2023-02-20T02:28:50;95395.84;;;9.97;61.29
19761;BME280;10039;42.632;23.408;2023-02-20T02:41:45;95389.13;;;9.82;61.52
19761;BME280;10039;42.632;23.408;2023-02-20T02:49:20;95415.19;;;9.64;61.88
19761;BME280;10039;42.632;23.408;2023-02-20T02:51:49;95422.41;;;9.67;61.90
19761;BME280;10039;42.632;23.408;2023-02-20T02:54:20;95419.75;;;9.64;61.50
19761;BME280;10039;42.632;23.408;2023-02-20T02:56:51;95410.72;;;9.51;62.12
19761;BME280;10039;42.632;23.408;2023-02-20T02:59:24;95417.81;;;9.68;61.63
19761;BME280;10039;42.632;23.408;2023-02-20T03:01:57;95434.94;;;9.70;61.55
19761;BME280;10039;42.632;23.408;2023-02-20T03:04:26;95424.28;;;9.67;61.57
19761;BME280;10039;42.632;23.408;2023-02-20T03:06:58;95434.25;;;9.59;61.50
19761;BME280;10039;42.632;23.408;2023-02-20T03:09:29;95429.66;;;9.60;61.20
19761;BME280;10039;42.632;23.408;2023-02-20T03:11:57;95438.03;;;9.62;61.06
19761;BME280;10039;42.632;23.408;2023-02-20T03:15:27;95421.34;;;9.54;61.20
19761;BME280;10039;42.632;23.408;2023-02-20T03:18:12;95431.28;;;9.50;61.92
19761;BME280;10039;42.632;23.408;2023-02-20T03:20:58;95411.97;;;9.39;61.56
19761;BME280;10039;42.632;23.408;2023-02-20T03:23:29;95412.38;;;9.34;61.68
19761;BME280;10039;42.632;23.408;2023-02-20T03:26:08;95424.53;;;9.32;61.96
19761;BME280;10039;42.632;23.408;2023-02-20T03:28:38;95427.94;;;9.39;61.64
19761;BME280;10039;42.632;23.408;2023-02-20T03:31:12;95433.28;;;9.39;61.54
19761;BME280;10039;42.632;23.408;2023-02-20T03:33:45;95437.44;;;9.37;61.78
19761;BME280;10039;42.632;23.408;2023-02-20T03:36:38;95449.69;;;9.27;61.58
19761;BME280;10039;42.632;23.408;2023-02-20T03:39:31;95451.25;;;9.21;62.29
19761;BME280;10039;42.632;23.408;2023-02-20T03:42:18;95449.72;;;9.20;62.02
19761;BME280;10039;42.632;23.408;2023-02-20T03:45:04;95450.50;;;9.21;62.15
19761;BME280;10039;42.632;23.408;2023-02-20T03:47:30;95455.50;;;9.08;62.44
19761;BME280;10039;42.632;23.408;2023-02-20T03:49:58;95461.19;;;9.14;62.66
19761;BME280;10039;42.632;23.408;2023-02-20T03:52:26;95451.69;;;9.09;62.24
19761;BME280;10039;42.632;23.408;2023-02-20T03:54:51;95442.97;;;9.09;62.28
19761;BME280;10039;42.632;23.408;2023-02-20T03:57:21;95440.34;;;8.98;62.08
19761;BME280;10039;42.632;23.408;2023-02-20T04:00:19;95450.91;;;9.12;61.79
19761;BME280;10039;42.632;23.408;2023-02-20T04:02:47;95466.13;;;9.15;61.77
19761;BME280;10039;42.632;23.408;2023-02-20T04:05:26;95455.56;;;9.01;62.28
19761;BME280;10039;42.632;23.408;2023-02-20T04:07:57;95448.34;;;8.95;61.90
19761;BME280;10039;42.632;23.408;2023-02-20T04:10:28;95450.63;;;8.96;62.39
19761;BME280;10039;42.632;23.408;2023-02-20T04:12:55;95448.06;;;8.79;62.33
19761;BME280;10039;42.632;23.408;2023-02-20T04:33:28;95488.41;;;10.40;56.44
19761;BME280;10039;42.632;23.408;2023-02-20T04:35:54;95495.63;;;10.00;57.33
19761;BME280;10039;42.632;23.408;2023-02-20T04:38:23;95485.63;;;9.63;58.98
19761;BME280;10039;42.632;23.408;2023-02-20T04:40:48;95502.16;;;9.37;60.45
19761;BME280;10039;42.632;23.408;2023-02-20T04:43:15;95491.19;;;9.21;60.58
19761;BME280;10039;42.632;23.408;2023-02-20T04:45:40;95481.00;;;9.06;61.39
19761;BME280;10039;42.632;23.408;2023-02-20T04:48:05;95449.53;;;8.87;61.29
19761;BME280;10039;42.632;23.408;2023-02-20T04:50:32;95481.34;;;9.11;61.69
19761;BME280;10039;42.632;23.408;2023-02-20T04:52:59;95502.28;;;9.09;60.98
19761;BME280;10039;42.632;23.408;2023-02-20T04:55:25;95496.19;;;9.09;61.20
19761;BME280;10039;42.632;23.408;2023-02-20T04:57:51;95522.50;;;8.96;60.58
19761;BME280;10039;42.632;23.408;2023-02-20T05:00:23;95519.06;;;8.99;60.55
19761;BME280;10039;42.632;23.408;2023-02-20T05:02:50;95505.03;;;8.88;60.87
19761;BME280;10039;42.632;23.408;2023-02-20T05:05:21;95510.72;;;8.97;60.35
19761;BME280;10039;42.632;23.408;2023-02-20T05:07:47;95507.31;;;8.90;60.10
19761;BME280;10039;42.632;23.408;2023-02-20T05:10:18;95504.66;;;8.87;59.34
19761;BME280;10039;42.632;23.408;2023-02-20T05:12:44;95520.63;;;8.87;59.26
19761;BME280;10039;42.632;23.408;2023-02-20T05:15:09;95500.56;;;8.65;59.30
19761;BME280;10039;42.632;23.408;2023-02-20T05:17:35;95514.59;;;8.65;59.12
19761;BME280;10039;42.632;23.408;2023-02-20T05:20:01;95512.28;;;8.78;58.79
19761;BME280;10039;42.632;23.408;2023-02-20T05:22:27;95539.69;;;8.75;59.04
19761;BME280;10039;42.632;23.408;2023-02-20T05:24:52;95540.47;;;8.65;58.45
19761;BME280;10039;42.632;23.408;2023-02-20T05:27:19;95526.78;;;8.63;58.51
19761;BME280;10039;42.632;23.408;2023-02-20T05:29:47;95546.94;;;8.57;58.48
19761;BME280;10039;42.632;23.408;2023-02-20T05:32:13;95545.41;;;8.56;58.36
19761;BME280;10039;42.632;23.408;2023-02-20T05:34:39;95525.31;;;8.44;58.47
19761;BME280;10039;42.632;23.408;2023-02-20T05:37:05;95530.59;;;8.62;58.62
19761;BME280;10039;42.632;23.408;2023-02-20T05:39:30;95546.56;;;8.58;57.96
19761;BME280;10039;42.632;23.408;2023-02-20T05:41:56;95571.28;;;8.55;59.07
19761;BME280;10039;42.632;23.408;2023-02-20T05:44:21;95556.06;;;8.56;59.22
19761;BME280;10039;42.632;23.408;2023-02-20T05:46:46;95566.31;;;8.57;59.14
19761;BME280;10039;42.632;23.408;2023-02-20T05:49:12;95568.59;;;8.59;59.89
19761;BME280;10039;42.632;23.408;2023-02-20T05:51:37;95573.53;;;8.57;60.00
19761;BME280;10039;42.632;23.408;2023-02-20T05:54:04;95579.22;;;8.69;59.66
19761;BME280;10039;42.632;23.408;2023-02-20T05:56:29;95583.44;;;8.56;60.28
19761;BME280;10039;42.632;23.408;2023-02-20T05:58:57;95575.06;;;8.58;60.35
19761;BME280;10039;42.632;23.408;2023-02-20T06:01:25;95561.00;;;8.54;60.23
19761;BME280;10039;42.632;23.408;2023-02-20T06:03:52;95572.75;;;8.63;60.42
19761;BME280;10039;42.632;23.408;2023-02-20T06:06:18;95574.66;;;8.70;60.29
19761;BME280;10039;42.632;23.408;2023-02-20T06:08:44;95569.72;;;8.72;59.83
19761;BME280;10039;42.632;23.408;2023-02-20T06:11:11;95584.13;;;8.81;59.56
19761;BME280;10039;42.632;23.408;2023-02-20T06:13:42;95586.78;;;8.91;59.46
19761;BME280;10039;42.632;23.408;2023-02-20T06:16:08;95580.28;;;8.96;58.30
19761;BME280;10039;42.632;23.408;2023-02-20T06:18:37;95590.56;;;8.90;57.22
19761;BME280;10039;42.632;23.408;2023-02-20T06:21:06;95574.59;;;8.94;57.04
19761;BME280;10039;42.632;23.408;2023-02-20T06:23:32;95584.84;;;9.02;55.70
19761;BME280;10039;42.632;23.408;2023-02-20T06:25:57;95585.22;;;9.04;55.79
19761;BME280;10039;42.632;23.408;2023-02-20T06:28:22;95578.34;;;9.10;54.52
19761;BME280;10039;42.632;23.408;2023-02-20T06:30:48;95601.13;;;9.25;55.45
19761;BME280;10039;42.632;23.408;2023-02-20T06:33:14;95595.75;;;9.36;54.22
19761;BME280;10039;42.632;23.408;2023-02-20T06:35:40;95603.69;;;9.46;54.02
19761;BME280;10039;42.632;23.408;2023-02-20T06:38:05;95583.56;;;9.38;54.75
19761;BME280;10039;42.632;23.408;2023-02-20T06:40:31;95601.00;;;9.53;54.57
19761;BME280;10039;42.632;23.408;2023-02-20T06:42:56;95602.47;;;9.61;53.80
19761;BME280;10039;42.632;23.408;2023-02-20T06:45:21;95613.47;;;9.74;52.77
19761;BME280;10039;42.632;23.408;2023-02-20T06:47:47;95626.72;;;9.88;53.09
19761;BME280;10039;42.632;23.408;2023-02-20T06:50:12;95616.41;;;9.90;53.19
19761;BME280;10039;42.632;23.408;2023-02-20T06:52:37;95609.91;;;9.91;53.22
19761;BME280;10039;42.632;23.408;2023-02-20T06:55:03;95616.03;;;9.91;52.75
19761;BME280;10039;42.632;23.408;2023-02-20T06:57:30;95618.38;;;9.79;52.43
19761;BME280;10039;42.632;23.408;2023-02-20T06:59:56;95634.06;;;9.66;52.63
19761;BME280;10039;42.632;23.408;2023-02-20T07:02:22;95623.06;;;9.57;53.02
19761;BME280;10039;42.632;23.408;2023-02-20T07:04:48;95635.91;;;9.76;53.23
19761;BME280;10039;42.632;23.408;2023-02-20T07:07:14;95616.16;;;9.70;53.61
19761;BME280;10039;42.632;23.408;2023-02-20T07:09:39;95632.84;;;9.74;53.50
19761;BME280;10039;42.632;23.408;2023-02-20T07:12:05;95633.94;;;9.87;52.98
19761;BME280;10039;42.632;23.408;2023-02-20T07:14:30;95592.22;;;9.56;52.85
19761;BME280;10039;42.632;23.408;2023-02-20T07:16:56;95623.72;;;9.79;53.04
19761;BME280;10039;42.632;23.408;2023-02-20T07:19:21;95599.06;;;9.57;51.84
19761;BME280;10039;42.632;23.408;2023-02-20T07:21:46;95630.59;;;9.73;52.04
19761;BME280;10039;42.632;23.408;2023-02-20T07:24:12;95630.16;;;9.81;51.63
19761;BME280;10039;42.632;23.408;2023-02-20T07:26:38;95607.03;;;9.64;51.92
19761;BME280;10039;42.632;23.408;2023-02-20T07:29:05;95620.56;;;10.01;51.33
19761;BME280;10039;42.632;23.408;2023-02-20T07:31:30;95609.09;;;10.04;49.38
19761;BME280;10039;42.632;23.408;2023-02-20T07:33:56;95610.31;;;9.89;48.68
19761;BME280;10039;42.632;23.408;2023-02-20T07:36:22;95603.03;;;9.97;49.39
19761;BME280;10039;42.632;23.408;2023-02-20T07:38:59;95602.66;;;9.95;48.28
19761;BME280;10039;42.632;23.408;2023-02-20T07:41:26;95604.56;;;9.98;49.22
19761;BME280;10039;42.632;23.408;2023-02-20T07:43:54;95607.31;;;9.80;48.03
19761;BME280;10039;42.632;23.408;2023-02-20T07:46:19;95625.22;;;9.80;48.29
19761;BME280;10039;42.632;23.408;2023-02-20T07:48:45;95613.03;;;9.86;47.52
19761;BME280;10039;42.632;23.408;2023-02-20T07:51:10;95619.44;;;9.95;48.16
19761;BME280;10039;42.632;23.408;2023-02-20T07:53:36;95623.41;;;9.66;46.86
19761;BME280;10039;42.632;23.408;2023-02-20T07:56:01;95628.94;;;9.93;47.25
19761;BME280;10039;42.632;23.408;2023-02-20T07:58:28;95622.88;;;9.92;47.40
19761;BME280;10039;42.632;23.408;2023-02-20T08:00:53;95619.13;;;9.83;47.35
19761;BME280;10039;42.632;23.408;2023-02-20T08:03:19;95610.69;;;9.91;47.42
19761;BME280;10039;42.632;23.408;2023-02-20T08:05:44;95625.22;;;9.76;46.48
19761;BME280;10039;42.632;23.408;2023-02-20T08:08:10;95621.38;;;9.88;47.30
19761;BME280;10039;42.632;23.408;2023-02-20T08:10:35;95606.16;;;9.85;46.93
19761;BME280;10039;42.632;23.408;2023-02-20T08:13:01;95593.19;;;9.90;46.47
19761;BME280;10039;42.632;23.408;2023-02-20T08:15:27;95630.84;;;10.02;47.27
19761;BME280;10039;42.632;23.408;2023-02-20T08:17:52;95616.00;;;9.98;46.41
19761;BME280;10039;42.632;23.408;2023-02-20T08:20:20;95636.09;;;10.13;46.03
19761;BME280;10039;42.632;23.408;2023-02-20T08:22:47;95629.31;;;10.02;45.34
19761;BME280;10039;42.632;23.408;2023-02-20T08:25:15;95633.53;;;9.89;46.23
19761;BME280;10039;42.632;23.408;2023-02-20T08:27:42;95616.41;;;9.90;46.57
19761;BME280;10039;42.632;23.408;2023-02-20T08:30:14;95616.00;;;9.98;46.13
19761;BME280;10039;42.632;23.408;2023-02-20T08:32:40;95633.53;;;9.92;45.98
19761;BME280;10039;42.632;23.408;2023-02-20T08:35:06;95645.31;;;9.98;46.70
19761;BME280;10039;42.632;23.408;2023-02-20T08:37:32;95616.78;;;9.92;46.48
19761;BME280;10039;42.632;23.408;2023-02-20T08:39:57;95590.28;;;9.67;46.04
19761;BME280;10039;42.632;23.408;2023-02-20T08:42:23;95624.00;;;9.95;46.21
19761;BME280;10039;42.632;23.408;2023-02-20T08:44:48;95619.03;;;9.97;45.91
19761;BME280;10039;42.632;23.408;2023-02-20T08:47:13;95621.75;;;9.86;46.65
19761;BME280;10039;42.632;23.408;2023-02-20T08:49:39;95657.16;;;9.90;46.52
19761;BME280;10039;42.632;23.408;2023-02-20T08:52:05;95605.53;;;9.63;46.54
19761;BME280;10039;42.632;23.408;2023-02-20T08:54:31;95632.06;;;9.88;47.00
19761;BME280;10039;42.632;23.408;2023-02-20T08:56:56;95626.72;;;9.84;46.56
19761;BME280;10039;42.632;23.408;2023-02-20T08:59:22;95619.88;;;9.87;46.03
19761;BME280;10039;42.632;23.408;2023-02-20T09:01:47;95612.59;;;9.94;46.90
19761;BME280;10039;42.632;23.408;2023-02-20T09:04:13;95621.28;;;10.05;46.45
19761;BME280;10039;42.632;23.408;2023-02-20T09:06:39;95597.72;;;10.00;46.31
19761;BME280;10039;42.632;23.408;2023-02-20T09:09:05;95612.19;;;9.99;46.94
19761;BME280;10039;42.632;23.408;2023-02-20T09:11:30;95599.94;;;10.05;46.35
19761;BME280;10039;42.632;23.408;2023-02-20T09:13:56;95606.84;;;10.02;45.73
19761;BME280;10039;42.632;23.408;2023-02-20T09:16:23;95605.31;;;10.02;46.59
19761;BME280;10039;42.632;23.408;2023-02-20T09:18:49;95605.28;;;10.05;46.58
19761;BME280;10039;42.632;23.408;2023-02-20T09:21:17;95600.00;;;9.98;46.37
19761;BME280;10039;42.632;23.408;2023-02-20T09:23:43;95572.63;;;9.87;46.48
19761;BME280;10039;42.632;23.408;2023-02-20T09:26:08;95598.50;;;9.90;46.82
19761;BME280;10039;42.632;23.408;2023-02-20T09:28:34;95597.66;;;10.07;46.55
19761;BME280;10039;42.632;23.408;2023-02-20T09:30:59;95575.63;;;10.00;46.32
19761;BME280;10039;42.632;23.408;2023-02-20T09:33:26;95606.38;;;10.14;46.18
19761;BME280;10039;42.632;23.408;2023-02-20T09:35:52;95600.69;;;10.09;46.14
19761;BME280;10039;42.632;23.408;2023-02-20T09:38:20;95604.88;;;10.10;46.08
19761;BME280;10039;42.632;23.408;2023-02-20T09:40:48;95572.09;;;10.16;46.57
19761;BME280;10039;42.632;23.408;2023-02-20T09:43:46;95562.22;;;10.10;46.23
19761;BME280;10039;42.632;23.408;2023-02-20T09:46:16;95616.16;;;10.31;46.54
19761;BME280;10039;42.632;23.408;2023-02-20T09:49:04;95589.09;;;10.33;46.77
19761;BME280;10039;42.632;23.408;2023-02-20T09:51:37;95571.50;;;10.39;46.45
19761;BME280;10039;42.632;23.408;2023-02-20T09:54:28;95624.00;;;10.52;46.41
19761;BME280;10039;42.632;23.408;2023-02-20T09:56:55;95605.41;;;10.42;46.06
19761;BME280;10039;42.632;23.408;2023-02-20T09:59:28;95615.69;;;10.43;46.47
19761;BME280;10039;42.632;23.408;2023-02-20T10:04:50;95620.75;;;10.31;46.36
19761;BME280;10039;42.632;23.408;2023-02-20T10:07:29;95608.81;;;10.46;45.81
19761;BME280;10039;42.632;23.408;2023-02-20T10:09:56;95608.72;;;10.56;45.55
19761;BME280;10039;42.632;23.408;2023-02-20T10:12:38;95617.84;;;10.59;45.46
19761;BME280;10039;42.632;23.408;2023-02-20T10:18:02;95608.97;;;10.69;45.65
19761;BME280;10039;42.632;23.408;2023-02-20T10:23:50;95589.91;;;10.70;43.85
19761;BME280;10039;42.632;23.408;2023-02-20T10:26:22;95591.78;;;10.73;43.54
19761;BME280;10039;42.632;23.408;2023-02-20T10:28:50;95587.00;;;10.54;42.61
19761;BME280;10039;42.632;23.408;2023-02-20T10:31:41;95595.56;;;10.76;42.82
19761;BME280;10039;42.632;23.408;2023-02-20T10:34:11;95587.50;;;10.83;43.39
19761;BME280;10039;42.632;23.408;2023-02-20T10:36:45;95592.78;;;10.90;43.55
19761;BME280;10039;42.632;23.408;2023-02-20T10:39:17;95596.53;;;10.96;42.60
19761;BME280;10039;42.632;23.408;2023-02-20T10:42:00;95577.38;;;11.01;42.65
19761;BME280;10039;42.632;23.408;2023-02-20T10:44:31;95609.09;;;10.99;42.14
19761;BME280;10039;42.632;23.408;2023-02-20T10:47:09;95590.72;;;11.01;41.31
19761;BME280;10039;42.632;23.408;2023-02-20T10:50:03;95564.13;;;10.94;41.24
19761;BME280;10039;42.632;23.408;2023-02-20T10:52:36;95557.16;;;11.03;41.67
19761;BME280;10039;42.632;23.408;2023-02-20T10:55:17;95568.56;;;11.07;41.73
19761;BME280;10039;42.632;23.408;2023-02-20T10:57:53;95560.06;;;11.15;41.10
19761;BME280;10039;42.632;23.408;2023-02-20T11:00:35;95552.47;;;11.11;40.88
19761;BME280;10039;42.632;23.408;2023-02-20T11:03:07;95565.34;;;11.19;40.36
19761;BME280;10039;42.632;23.408;2023-02-20T11:05:50;95579.84;;;11.21;41.43
19761;BME280;10039;42.632;23.408;2023-02-20T11:08:17;95573.25;;;11.29;40.83
19761;BME280;10039;42.632;23.408;2023-02-20T11:10:48;95570.47;;;11.36;40.83
19761;BME280;10039;42.632;23.408;2023-02-20T11:13:18;95583.69;;;11.50;40.63
19761;BME280;10039;42.632;23.408;2023-02-20T11:15:47;95585.84;;;11.62;41.05
19761;BME280;10039;42.632;23.408;2023-02-20T11:18:22;95549.91;;;11.33;39.70
19761;BME280;10039;42.632;23.408;2023-02-20T11:20:51;95577.91;;;11.52;38.92
19761;BME280;10039;42.632;23.408;2023-02-20T11:23:37;95587.81;;;11.58;39.57
19761;BME280;10039;42.632;23.408;2023-02-20T11:26:32;95579.31;;;11.63;39.50
19761;BME280;10039;42.632;23.408;2023-02-20T11:29:08;95577.13;;;11.58;40.56
19761;BME280;10039;42.632;23.408;2023-02-20T11:31:35;95572.03;;;11.67;39.32
19761;BME280;10039;42.632;23.408;2023-02-20T11:34:03;95572.28;;;11.76;39.96
19761;BME280;10039;42.632;23.408;2023-02-20T11:36:42;95575.38;;;11.75;40.17
19761;BME280;10039;42.632;23.408;2023-02-20T11:39:23;95565.88;;;11.70;39.48
19761;BME280;10039;42.632;23.408;2023-02-20T11:42:14;95563.47;;;11.79;40.86
19761;BME280;10039;42.632;23.408;2023-02-20T11:44:40;95580.66;;;11.78;41.65
19761;BME280;10039;42.632;23.408;2023-02-20T11:47:20;95565.41;;;11.75;42.48
19761;BME280;10039;42.632;23.408;2023-02-20T11:49:47;95553.03;;;11.88;42.70
19761;BME280;10039;42.632;23.408;2023-02-20T11:52:19;95562.00;;;12.01;42.21
19761;BME280;10039;42.632;23.408;2023-02-20T11:54:45;95563.84;;;12.04;41.92
19761;BME280;10039;42.632;23.408;2023-02-20T11:59:42;95562.13;;;12.17;41.60
19761;BME280;10039;42.632;23.408;2023-02-20T12:04:39;95574.88;;;12.10;41.46
19761;BME280;10039;42.632;23.408;2023-02-20T12:09:48;95545.03;;;12.11;41.53
19761;BME280;10039;42.632;23.408;2023-02-20T12:12:15;95538.44;;;12.16;41.54
19761;BME280;10039;42.632;23.408;2023-02-20T12:14:41;95551.59;;;12.07;41.74
19761;BME280;10039;42.632;23.408;2023-02-20T12:17:13;95534.78;;;12.06;41.36
19761;BME280;10039;42.632;23.408;2023-02-20T12:19:53;95534.53;;;11.97;41.03
19761;BME280;10039;42.632;23.408;2023-02-20T12:35:24;95554.47;;;12.19;39.97
19761;BME280;10039;42.632;23.408;2023-02-20T12:43:30;95560.97;;;12.18;40.79
19761;BME280;10039;42.632;23.408;2023-02-20T12:51:53;95540.09;;;12.10;40.86
19761;BME280;10039;42.632;23.408;2023-02-20T12:54:39;95552.53;;;12.20;41.50
19761;BME280;10039;42.632;23.408;2023-02-20T12:57:39;95559.47;;;12.17;40.83
19761;BME280;10039;42.632;23.408;2023-02-20T13:00:28;95547.25;;;12.16;40.57
19761;BME280;10039;42.632;23.408;2023-02-20T13:05:31;95527.38;;;12.14;40.89
19761;BME280;10039;42.632;23.408;2023-02-20T13:08:01;95535.94;;;12.28;41.19
19761;BME280;10039;42.632;23.408;2023-02-20T13:10:59;95535.63;;;12.26;41.11
19761;BME280;10039;42.632;23.408;2023-02-20T13:13:34;95546.97;;;12.33;41.23
19761;BME280;10039;42.632;23.408;2023-02-20T13:16:11;95548.75;;;12.40;41.44
19761;BME280;10039;42.632;23.408;2023-02-20T13:19:01;95549.66;;;12.33;40.61
19761;BME280;10039;42.632;23.408;2023-02-20T13:21:30;95554.56;;;12.35;40.85
19761;BME280;10039;42.632;23.408;2023-02-20T13:26:48;95565.06;;;12.49;40.69
19761;BME280;10039;42.632;23.408;2023-02-20T13:29:20;95553.13;;;12.30;40.69
19761;BME280;10039;42.632;23.408;2023-02-20T13:31:55;95557.44;;;12.25;40.73
19761;BME280;10039;42.632;23.408;2023-02-20T13:34:29;95554.56;;;12.35;40.36
19761;BME280;10039;42.632;23.408;2023-02-20T13:36:54;95546.44;;;12.19;40.68
19761;BME280;10039;42.632;23.408;2023-02-20T14:00:28;95580.00;;;12.24;41.59
19761;BME280;10039;42.632;23.408;2023-02-20T14:02:58;95580.59;;;12.34;40.82
19761;BME280;10039;42.632;23.408;2023-02-20T14:05:30;95577.28;;;12.50;41.28
19761;BME280;10039;42.632;23.408;2023-02-20T14:07:57;95574.72;;;12.43;41.50
19761;BME280;10039;42.632;23.408;2023-02-20T14:10:34;95554.66;;;12.31;41.66
19761;BME280;10039;42.632;23.408;2023-02-20T14:15:30;95552.78;;;12.28;42.27
19761;BME280;10039;42.632;23.408;2023-02-20T14:17:57;95559.56;;;12.33;42.42
19761;BME280;10039;42.632;23.408;2023-02-20T14:20:34;95571.44;;;12.32;42.64
19761;BME280;10039;42.632;23.408;2023-02-20T14:23:18;95560.75;;;12.32;41.79
19761;BME280;10039;42.632;23.408;2023-02-20T14:26:02;95576.09;;;12.28;42.11
19761;BME280;10039;42.632;23.408;2023-02-20T14:28:30;95579.81;;;12.34;42.20
19761;BME280;10039;42.632;23.408;2023-02-20T14:31:37;95586.00;;;12.31;42.42
19761;BME280;10039;42.632;23.408;2023-02-20T14:34:18;95585.44;;;12.17;42.69
19761;BME280;10039;42.632;23.408;2023-02-20T14:37:00;95590.88;;;12.13;42.82
19761;BME280;10039;42.632;23.408;2023-02-20T14:42:15;95590.88;;;12.13;42.20
19761;BME280;10039;42.632;23.408;2023-02-20T14:44:41;95601.22;;;12.11;42.66
19761;BME280;10039;42.632;23.408;2023-02-20T14:47:10;95611.66;;;12.02;42.87
19761;BME280;10039;42.632;23.408;2023-02-20T14:49:37;95618.38;;;11.87;43.30
19761;BME280;10039;42.632;23.408;2023-02-20T14:52:14;95620.78;;;11.78;43.82
19761;BME280;10039;42.632;23.408;2023-02-20T14:54:42;95622.81;;;11.67;44.33
19761;BME280;10039;42.632;23.408;2023-02-20T14:57:12;95610.06;;;11.48;44.59
19761;BME280;10039;42.632;23.408;2023-02-20T14:59:40;95615.81;;;11.47;44.40
19761;BME280;10039;42.632;23.408;2023-02-20T15:02:19;95615.88;;;11.40;45.26
19761;BME280;10039;42.632;23.408;2023-02-20T15:07:12;95616.13;;;11.49;44.61
19761;BME280;10039;42.632;23.408;2023-02-20T15:09:49;95613.94;;;11.44;44.49
19761;BME280;10039;42.632;23.408;2023-02-20T15:12:44;95608.53;;;11.47;44.54